createdAt,value
2018-12-06T00:00:49.295Z,1017.37
2018-12-06T00:01:49.270Z,1017.42
2018-12-06T00:02:49.257Z,1017.30
2018-12-06T00:03:49.257Z,1017.40
2018-12-06T00:04:49.237Z,1017.33
2018-12-06T00:05:49.261Z,1017.32
2018-12-06T00:06:49.215Z,1017.35
2018-12-06T00:07:49.203Z,1017.30
2018-12-06T00:08:49.191Z,1017.29
2018-12-06T00:09:49.202Z,1017.24
2018-12-06T00:10:49.177Z,1017.23
2018-12-06T00:11:49.169Z,1017.23
2018-12-06T00:12:49.151Z,1017.23
2018-12-06T00:13:49.135Z,1017.21
2018-12-06T00:14:49.123Z,1017.25
2018-12-06T00:15:49.114Z,1017.20
2018-12-06T00:16:49.137Z,1017.28
2018-12-06T00:17:49.093Z,1017.25
2018-12-06T00:18:49.086Z,1017.26
2018-12-06T00:19:49.089Z,1017.23
2018-12-06T00:20:49.061Z,1017.24
2018-12-06T00:21:49.078Z,1017.22
2018-12-06T00:22:49.039Z,1017.22
2018-12-06T00:23:49.025Z,1017.20
2018-12-06T00:24:49.041Z,1017.17
2018-12-06T00:25:49.007Z,1017.21
2018-12-06T00:26:49.012Z,1017.15
2018-12-06T00:27:48.995Z,1017.19
2018-12-06T00:28:48.972Z,1017.22
2018-12-06T00:29:48.990Z,1017.17
2018-12-06T00:30:48.949Z,1017.14
2018-12-06T00:31:48.967Z,1017.13
2018-12-06T00:32:48.927Z,1017.10
2018-12-06T00:33:48.917Z,1017.12
2018-12-06T00:34:48.905Z,1017.13
2018-12-06T00:35:48.892Z,1017.12
2018-12-06T00:36:48.901Z,1017.08
2018-12-06T00:37:48.871Z,1017.05
2018-12-06T00:38:48.864Z,1017.07
2018-12-06T00:39:48.847Z,1017.05
2018-12-06T00:40:48.837Z,1017.08
2018-12-06T00:41:48.855Z,1017.10
2018-12-06T00:42:48.824Z,1017.12
2018-12-06T00:43:48.812Z,1017.13
2018-12-06T00:44:48.809Z,1017.15
2018-12-06T00:45:48.787Z,1017.11
2018-12-06T00:46:48.799Z,1017.11
2018-12-06T00:47:48.764Z,1017.10
2018-12-06T00:48:48.830Z,1017.09
2018-12-06T00:49:48.761Z,1017.07
2018-12-06T00:50:48.735Z,1017.04
2018-12-06T00:51:48.732Z,1017.04
2018-12-06T00:52:48.710Z,1017.05
2018-12-06T00:53:48.697Z,1017.06
2018-12-06T00:54:48.720Z,1017.01
2018-12-06T00:55:48.681Z,1017.08
2018-12-06T00:56:48.697Z,1017.02
2018-12-06T00:57:48.657Z,1017.01
2018-12-06T00:58:48.646Z,1017.03
2018-12-06T00:59:48.636Z,1017.00
2018-12-06T01:00:48.625Z,1017.01
2018-12-06T01:01:48.632Z,1017.04
2018-12-06T01:02:48.601Z,1017.00
2018-12-06T01:03:48.588Z,1017.02
2018-12-06T01:04:48.579Z,1017.02
2018-12-06T01:05:48.567Z,1017.03
2018-12-06T01:06:48.572Z,1016.97
2018-12-06T01:07:48.542Z,1016.97
2018-12-06T01:08:48.533Z,1016.99
2018-12-06T01:09:48.521Z,1016.91
2018-12-06T01:10:48.508Z,1016.88
2018-12-06T01:11:48.520Z,1016.90
2018-12-06T01:12:48.506Z,1016.91
2018-12-06T01:13:48.479Z,1016.92
2018-12-06T01:14:48.471Z,1016.85
2018-12-06T01:15:48.471Z,1016.91
2018-12-06T01:16:48.460Z,1016.86
2018-12-06T01:17:48.438Z,1016.85
2018-12-06T01:18:48.437Z,1016.84
2018-12-06T01:19:48.449Z,1016.83
2018-12-06T01:20:48.424Z,1016.86
2018-12-06T01:21:48.392Z,1016.83
2018-12-06T01:22:48.382Z,1016.80
2018-12-06T01:23:48.379Z,1016.88
2018-12-06T01:24:48.362Z,1016.84
2018-12-06T01:25:48.373Z,1016.77
2018-12-06T01:26:48.337Z,1016.74
2018-12-06T01:27:48.349Z,1016.74
2018-12-06T01:28:48.342Z,1016.72
2018-12-06T01:29:48.332Z,1016.68
2018-12-06T01:30:48.313Z,1016.66
2018-12-06T01:31:48.282Z,1016.70
2018-12-06T01:32:48.277Z,1016.69
2018-12-06T01:33:48.295Z,1016.67
2018-12-06T01:34:48.250Z,1016.69
2018-12-06T01:35:48.240Z,1016.63
2018-12-06T01:36:48.228Z,1016.59
2018-12-06T01:37:48.215Z,1016.60
2018-12-06T01:38:48.228Z,1016.58
2018-12-06T01:39:48.195Z,1016.62
2018-12-06T01:40:48.186Z,1016.61
2018-12-06T01:41:48.183Z,1016.55
2018-12-06T01:42:48.167Z,1016.57
2018-12-06T01:43:48.170Z,1016.52
2018-12-06T01:44:48.138Z,1016.52
2018-12-06T01:45:48.142Z,1016.52
2018-12-06T01:46:48.119Z,1016.50
2018-12-06T01:47:48.107Z,1016.51
2018-12-06T01:48:48.131Z,1016.49
2018-12-06T01:49:48.082Z,1016.49
2018-12-06T01:50:48.088Z,1016.48
2018-12-06T01:51:48.061Z,1016.46
2018-12-06T01:52:48.052Z,1016.50
2018-12-06T01:53:48.062Z,1016.48
2018-12-06T01:54:48.029Z,1016.45
2018-12-06T01:55:48.019Z,1016.42
2018-12-06T01:56:48.011Z,1016.38
2018-12-06T01:57:48.001Z,1016.40
2018-12-06T01:58:48.009Z,1016.39
2018-12-06T01:59:47.972Z,1016.40
2018-12-06T02:00:47.960Z,1016.43
2018-12-06T02:01:47.954Z,1016.40
2018-12-06T02:02:47.973Z,1016.38
2018-12-06T02:03:47.951Z,1016.36
2018-12-06T02:04:47.932Z,1016.36
2018-12-06T02:05:47.934Z,1016.37
2018-12-06T02:06:47.893Z,1016.32
2018-12-06T02:07:47.894Z,1016.31
2018-12-06T02:08:47.871Z,1016.30
2018-12-06T02:09:47.884Z,1016.25
2018-12-06T02:10:47.870Z,1016.29
2018-12-06T02:11:47.843Z,1016.27
2018-12-06T02:12:47.830Z,1016.28
2018-12-06T02:13:47.820Z,1016.29
2018-12-06T02:14:47.824Z,1016.33
2018-12-06T02:15:47.799Z,1016.32
2018-12-06T02:16:47.786Z,1016.27
2018-12-06T02:17:47.787Z,1016.25
2018-12-06T02:18:47.766Z,1016.25
2018-12-06T02:19:47.772Z,1016.27
2018-12-06T02:20:47.757Z,1016.28
2018-12-06T02:21:47.734Z,1016.29
2018-12-06T02:22:47.723Z,1016.36
2018-12-06T02:23:47.710Z,1016.32
2018-12-06T02:24:47.714Z,1016.32
2018-12-06T02:25:47.689Z,1016.37
2018-12-06T02:26:47.680Z,1016.34
2018-12-06T02:27:47.680Z,1016.31
2018-12-06T02:28:47.665Z,1016.26
2018-12-06T02:29:47.667Z,1016.25
2018-12-06T02:30:47.642Z,1016.24
2018-12-06T02:31:47.648Z,1016.22
2018-12-06T02:32:47.617Z,1016.21
2018-12-06T02:33:47.603Z,1016.23
2018-12-06T02:34:47.589Z,1016.17
2018-12-06T02:35:47.611Z,1016.22
2018-12-06T02:36:47.573Z,1016.16
2018-12-06T02:37:47.561Z,1016.13
2018-12-06T02:38:47.549Z,1016.09
2018-12-06T02:39:47.535Z,1016.07
2018-12-06T02:40:47.549Z,1016.01
2018-12-06T02:41:47.515Z,1015.98
2018-12-06T02:42:47.504Z,1016.00
2018-12-06T02:43:47.493Z,1015.97
2018-12-06T02:44:47.486Z,1015.95
2018-12-06T02:45:47.593Z,1015.93
2018-12-06T02:46:47.457Z,1015.92
2018-12-06T02:47:47.452Z,1015.84
2018-12-06T02:48:47.445Z,1015.85
2018-12-06T02:49:47.427Z,1015.88
2018-12-06T02:50:47.491Z,1015.80
2018-12-06T02:51:47.407Z,1015.79
2018-12-06T02:52:47.413Z,1015.79
2018-12-06T02:53:47.389Z,1015.73
2018-12-06T02:54:47.375Z,1015.72
2018-12-06T02:55:47.364Z,1015.70
2018-12-06T02:56:47.368Z,1015.69
2018-12-06T02:57:47.338Z,1015.66
2018-12-06T02:58:47.327Z,1015.60
2018-12-06T02:59:47.313Z,1015.56
2018-12-06T03:00:47.302Z,1015.57
2018-12-06T03:01:47.319Z,1015.53
2018-12-06T03:02:47.284Z,1015.52
2018-12-06T03:03:47.271Z,1015.48
2018-12-06T03:04:47.270Z,1015.41
2018-12-06T03:05:47.257Z,1015.39
2018-12-06T03:06:47.263Z,1015.37
2018-12-06T03:07:47.233Z,1015.34
2018-12-06T03:08:47.220Z,1015.24
2018-12-06T03:09:47.210Z,1015.30
2018-12-06T03:10:47.205Z,1015.21
2018-12-06T03:11:47.212Z,1015.17
2018-12-06T03:12:47.187Z,1015.13
2018-12-06T03:13:47.164Z,1015.12
2018-12-06T03:14:47.154Z,1015.08
2018-12-06T03:15:47.149Z,1015.08
2018-12-06T03:16:47.147Z,1015.15
2018-12-06T03:17:47.123Z,1015.03
2018-12-06T03:18:47.118Z,1015.00
2018-12-06T03:19:47.816Z,1014.97
2018-12-06T03:20:47.088Z,1014.95
2018-12-06T03:21:47.093Z,1014.95
2018-12-06T03:22:47.083Z,1014.93
2018-12-06T03:23:47.059Z,1014.94
2018-12-06T03:24:47.047Z,1014.94
2018-12-06T03:25:47.038Z,1014.89
2018-12-06T03:26:47.024Z,1014.93
2018-12-06T03:27:47.036Z,1014.91
2018-12-06T03:28:47.004Z,1014.85
2018-12-06T03:29:47.017Z,1014.84
2018-12-06T03:30:46.997Z,1014.88
2018-12-06T03:31:46.984Z,1014.85
2018-12-06T03:32:46.975Z,1014.85
2018-12-06T03:33:46.948Z,1014.84
2018-12-06T03:34:46.933Z,1014.86
2018-12-06T03:35:47.008Z,1014.82
2018-12-06T03:36:47.765Z,1014.85
2018-12-06T03:37:46.922Z,1014.80
2018-12-06T03:38:46.900Z,1014.78
2018-12-06T03:39:46.882Z,1014.79
2018-12-06T03:40:46.880Z,1014.75
2018-12-06T03:41:46.862Z,1014.70
2018-12-06T03:42:46.888Z,1014.71
2018-12-06T03:43:46.838Z,1014.73
2018-12-06T03:44:46.831Z,1014.69
2018-12-06T03:45:46.812Z,1014.64
2018-12-06T03:46:46.807Z,1014.63
2018-12-06T03:47:46.795Z,1014.60
2018-12-06T03:48:46.870Z,1014.60
2018-12-06T03:49:46.770Z,1014.57
2018-12-06T03:50:46.761Z,1014.57
2018-12-06T03:51:46.748Z,1014.58
2018-12-06T03:52:46.739Z,1014.50
2018-12-06T03:53:46.749Z,1014.54
2018-12-06T03:54:46.718Z,1014.46
2018-12-06T03:55:46.704Z,1014.46
2018-12-06T03:56:46.697Z,1014.41
2018-12-06T03:57:46.687Z,1014.38
2018-12-06T03:58:46.702Z,1014.35
2018-12-06T03:59:46.658Z,1014.34
2018-12-06T04:00:46.652Z,1014.25
2018-12-06T04:01:46.674Z,1014.16
2018-12-06T04:02:46.645Z,1014.18
2018-12-06T04:03:46.640Z,1014.16
2018-12-06T04:04:46.616Z,1014.16
2018-12-06T04:05:46.597Z,1014.21
2018-12-06T04:06:46.588Z,1014.12
2018-12-06T04:07:46.575Z,1014.16
2018-12-06T04:08:46.590Z,1014.08
2018-12-06T04:09:46.552Z,1014.08
2018-12-06T04:10:46.545Z,1014.09
2018-12-06T04:11:46.532Z,1014.07
2018-12-06T04:12:46.524Z,1014.06
2018-12-06T04:13:46.530Z,1014.05
2018-12-06T04:14:46.496Z,1014.04
2018-12-06T04:15:46.490Z,1014.03
2018-12-06T04:16:46.482Z,1013.98
2018-12-06T04:17:46.473Z,1013.99
2018-12-06T04:18:46.475Z,1014.01
2018-12-06T04:19:46.443Z,1013.99
2018-12-06T04:20:46.437Z,1013.97
2018-12-06T04:21:46.423Z,1013.95
2018-12-06T04:22:46.415Z,1013.98
2018-12-06T04:23:46.418Z,1013.97
2018-12-06T04:24:46.393Z,1013.91
2018-12-06T04:25:46.383Z,1013.87
2018-12-06T04:26:46.380Z,1013.89
2018-12-06T04:27:46.381Z,1013.86
2018-12-06T04:28:46.365Z,1013.86
2018-12-06T04:29:46.337Z,1013.85
2018-12-06T04:30:46.324Z,1013.83
2018-12-06T04:31:46.313Z,1013.80
2018-12-06T04:32:46.302Z,1013.82
2018-12-06T04:33:46.306Z,1013.70
2018-12-06T04:34:46.283Z,1013.79
2018-12-06T04:35:46.265Z,1013.71
2018-12-06T04:36:46.263Z,1013.73
2018-12-06T04:37:46.245Z,1013.66
2018-12-06T04:38:46.256Z,1013.65
2018-12-06T04:39:46.227Z,1013.62
2018-12-06T04:40:46.210Z,1013.59
2018-12-06T04:41:46.203Z,1013.54
2018-12-06T04:42:46.194Z,1013.53
2018-12-06T04:43:46.200Z,1013.50
2018-12-06T04:44:46.175Z,1013.50
2018-12-06T04:45:46.159Z,1013.47
2018-12-06T04:46:46.147Z,1013.51
2018-12-06T04:47:46.134Z,1013.50
2018-12-06T04:48:46.163Z,1013.46
2018-12-06T04:49:46.113Z,1013.48
2018-12-06T04:50:46.157Z,1013.49
2018-12-06T04:51:46.095Z,1013.45
2018-12-06T04:52:46.090Z,1013.47
2018-12-06T04:53:46.083Z,1013.47
2018-12-06T04:54:46.080Z,1013.42
2018-12-06T04:55:46.056Z,1013.41
2018-12-06T04:56:46.033Z,1013.42
2018-12-06T04:57:46.027Z,1013.42
2018-12-06T04:58:46.018Z,1013.41
2018-12-06T04:59:46.025Z,1013.42
2018-12-06T05:00:45.996Z,1013.43
2018-12-06T05:01:45.983Z,1013.38
2018-12-06T05:02:45.973Z,1013.39
2018-12-06T05:03:45.963Z,1013.42
2018-12-06T05:04:45.971Z,1013.38
2018-12-06T05:05:45.938Z,1013.44
2018-12-06T05:06:45.936Z,1013.36
2018-12-06T05:07:45.917Z,1013.38
2018-12-06T05:08:45.914Z,1013.37
2018-12-06T05:09:45.921Z,1013.37
2018-12-06T05:10:45.886Z,1013.36
2018-12-06T05:11:45.877Z,1013.38
2018-12-06T05:12:45.866Z,1013.35
2018-12-06T05:13:45.852Z,1013.38
2018-12-06T05:14:45.861Z,1013.43
2018-12-06T05:15:53.230Z,1013.37
2018-12-06T05:17:01.765Z,1013.41
2018-12-06T05:17:45.808Z,1013.42
2018-12-06T05:18:45.801Z,1013.43
2018-12-06T05:19:45.809Z,1013.41
2018-12-06T05:20:45.779Z,1013.42
2018-12-06T05:21:45.766Z,1013.42
2018-12-06T05:22:45.757Z,1013.38
2018-12-06T05:23:45.756Z,1013.41
2018-12-06T05:24:45.761Z,1013.43
2018-12-06T05:25:45.723Z,1013.40
2018-12-06T05:26:45.712Z,1013.36
2018-12-06T05:27:45.698Z,1013.35
2018-12-06T05:28:45.694Z,1013.37
2018-12-06T05:29:45.695Z,1013.40
2018-12-06T05:30:45.665Z,1013.41
2018-12-06T05:31:45.658Z,1013.37
2018-12-06T05:32:45.662Z,1013.38
2018-12-06T05:33:45.638Z,1013.37
2018-12-06T05:34:45.665Z,1013.35
2018-12-06T05:35:45.611Z,1013.43
2018-12-06T05:36:45.599Z,1013.43
2018-12-06T05:37:45.599Z,1013.50
2018-12-06T05:38:45.593Z,1013.45
2018-12-06T05:39:45.571Z,1013.48
2018-12-06T05:40:45.653Z,1013.45
2018-12-06T05:41:45.543Z,1013.56
2018-12-06T05:42:45.535Z,1013.54
2018-12-06T05:43:45.523Z,1013.53
2018-12-06T05:44:45.511Z,1013.55
2018-12-06T05:45:45.521Z,1013.54
2018-12-06T05:46:45.487Z,1013.57
2018-12-06T05:47:45.485Z,1013.52
2018-12-06T05:48:45.468Z,1013.51
2018-12-06T05:49:45.461Z,1013.51
2018-12-06T05:50:45.476Z,1013.51
2018-12-06T05:51:45.435Z,1013.46
2018-12-06T05:52:45.423Z,1013.41
2018-12-06T05:53:45.417Z,1013.47
2018-12-06T05:54:45.405Z,1013.45
2018-12-06T05:55:45.417Z,1013.43
2018-12-06T05:56:45.377Z,1013.44
2018-12-06T05:57:45.367Z,1013.44
2018-12-06T05:58:45.355Z,1013.41
2018-12-06T05:59:45.343Z,1013.38
2018-12-06T06:00:45.353Z,1013.43
2018-12-06T06:01:45.327Z,1013.43
2018-12-06T06:02:45.323Z,1013.43
2018-12-06T06:03:45.303Z,1013.39
2018-12-06T06:04:45.298Z,1013.38
2018-12-06T06:05:45.299Z,1013.43
2018-12-06T06:06:45.269Z,1013.45
2018-12-06T06:07:45.257Z,1013.41
2018-12-06T06:08:45.248Z,1013.49
2018-12-06T06:09:45.239Z,1013.42
2018-12-06T06:10:45.247Z,1013.39
2018-12-06T06:11:45.217Z,1013.38
2018-12-06T06:12:45.205Z,1013.36
2018-12-06T06:13:45.189Z,1013.38
2018-12-06T06:14:45.191Z,1013.37
2018-12-06T06:15:45.186Z,1013.34
2018-12-06T06:16:45.159Z,1013.34
2018-12-06T06:17:45.171Z,1013.35
2018-12-06T06:18:45.144Z,1013.37
2018-12-06T06:19:45.121Z,1013.38
2018-12-06T06:20:45.149Z,1013.41
2018-12-06T06:21:45.104Z,1013.39
2018-12-06T06:22:45.092Z,1013.43
2018-12-06T06:23:45.090Z,1013.46
2018-12-06T06:24:45.073Z,1013.47
2018-12-06T06:25:45.068Z,1013.42
2018-12-06T06:26:45.072Z,1013.46
2018-12-06T06:27:45.037Z,1013.47
2018-12-06T06:28:45.031Z,1013.45
2018-12-06T06:29:45.017Z,1013.44
2018-12-06T06:30:45.002Z,1013.39
2018-12-06T06:31:45.016Z,1013.39
2018-12-06T06:32:44.982Z,1013.40
2018-12-06T06:33:44.971Z,1013.38
2018-12-06T06:34:44.965Z,1013.33
2018-12-06T06:35:44.952Z,1013.30
2018-12-06T06:36:44.962Z,1013.29
2018-12-06T06:37:44.927Z,1013.26
2018-12-06T06:38:44.918Z,1013.29
2018-12-06T06:39:44.904Z,1013.33
2018-12-06T06:40:44.896Z,1013.35
2018-12-06T06:41:44.906Z,1013.39
2018-12-06T06:42:44.872Z,1013.40
2018-12-06T06:43:44.868Z,1013.39
2018-12-06T06:44:44.851Z,1013.45
2018-12-06T06:45:44.839Z,1013.44
2018-12-06T06:46:44.844Z,1013.46
2018-12-06T06:47:44.819Z,1013.42
2018-12-06T06:48:44.813Z,1013.45
2018-12-06T06:49:44.805Z,1013.41
2018-12-06T06:50:44.786Z,1013.44
2018-12-06T06:51:44.794Z,1013.37
2018-12-06T06:52:44.762Z,1013.36
2018-12-06T06:53:44.753Z,1013.34
2018-12-06T06:54:44.743Z,1013.36
2018-12-06T06:55:44.731Z,1013.38
2018-12-06T06:56:44.733Z,1013.34
2018-12-06T06:57:44.709Z,1013.38
2018-12-06T06:58:44.699Z,1013.36
2018-12-06T06:59:44.693Z,1013.32
2018-12-06T07:00:44.679Z,1013.30
2018-12-06T07:01:44.685Z,1013.26
2018-12-06T07:02:44.673Z,1013.22
2018-12-06T07:03:44.645Z,1013.25
2018-12-06T07:04:44.655Z,1013.21
2018-12-06T07:05:44.620Z,1013.24
2018-12-06T07:06:44.609Z,1013.22
2018-12-06T07:07:44.613Z,1013.23
2018-12-06T07:08:44.585Z,1013.24
2018-12-06T07:09:44.575Z,1013.22
2018-12-06T07:10:44.567Z,1013.23
2018-12-06T07:11:44.553Z,1013.27
2018-12-06T07:12:44.558Z,1013.25
2018-12-06T07:13:44.541Z,1013.25
2018-12-06T07:14:44.524Z,1013.26
2018-12-06T07:15:44.507Z,1013.17
2018-12-06T07:16:44.503Z,1013.20
2018-12-06T07:17:44.509Z,1013.16
2018-12-06T07:18:44.477Z,1013.16
2018-12-06T07:19:44.466Z,1013.08
2018-12-06T07:20:44.456Z,1013.13
2018-12-06T07:21:44.445Z,1013.15
2018-12-06T07:22:44.459Z,1013.17
2018-12-06T07:23:44.419Z,1013.17
2018-12-06T07:24:44.411Z,1013.20
2018-12-06T07:25:46.427Z,1013.22
2018-12-06T07:26:44.465Z,1013.22
2018-12-06T07:27:44.393Z,1013.18
2018-12-06T07:28:45.234Z,1013.15
2018-12-06T07:29:44.370Z,1013.10
2018-12-06T07:30:44.349Z,1013.09
2018-12-06T07:31:44.335Z,1013.00
2018-12-06T07:32:44.347Z,1012.98
2018-12-06T07:33:44.319Z,1013.01
2018-12-06T07:34:44.302Z,1012.96
2018-12-06T07:35:44.295Z,1012.94
2018-12-06T07:36:44.283Z,1012.93
2018-12-06T07:37:44.282Z,1012.96
2018-12-06T07:38:44.255Z,1012.87
2018-12-06T07:39:44.246Z,1012.90
2018-12-06T07:40:44.265Z,1012.88
2018-12-06T07:41:44.222Z,1012.85
2018-12-06T07:42:44.247Z,1012.82
2018-12-06T07:43:44.203Z,1012.84
2018-12-06T07:44:44.191Z,1012.81
2018-12-06T07:45:44.181Z,1012.78
2018-12-06T07:46:44.166Z,1012.81
2018-12-06T07:47:44.183Z,1012.75
2018-12-06T07:48:44.145Z,1012.73
2018-12-06T07:49:44.138Z,1012.64
2018-12-06T07:50:44.119Z,1012.59
2018-12-06T07:51:44.112Z,1012.52
2018-12-06T07:52:44.130Z,1012.50
2018-12-06T07:53:44.087Z,1012.51
2018-12-06T07:54:44.085Z,1012.47
2018-12-06T07:55:44.071Z,1012.48
2018-12-06T07:56:44.061Z,1012.42
2018-12-06T07:57:44.048Z,1012.36
2018-12-06T07:58:44.059Z,1012.31
2018-12-06T07:59:44.023Z,1012.30
2018-12-06T08:00:44.012Z,1012.23
2018-12-06T08:01:44.000Z,1012.20
2018-12-06T08:02:43.992Z,1012.20
2018-12-06T08:03:43.995Z,1012.14
2018-12-06T08:04:43.972Z,1012.16
2018-12-06T08:05:43.961Z,1012.09
2018-12-06T08:06:43.951Z,1012.09
2018-12-06T08:07:43.933Z,1012.11
2018-12-06T08:08:43.955Z,1012.02
2018-12-06T08:09:43.914Z,1012.11
2018-12-06T08:10:43.903Z,1012.10
2018-12-06T08:11:43.893Z,1012.12
2018-12-06T08:12:43.894Z,1012.21
2018-12-06T08:13:43.896Z,1012.26
2018-12-06T08:14:43.858Z,1012.35
2018-12-06T08:15:43.858Z,1012.40
2018-12-06T08:16:43.842Z,1012.48
2018-12-06T08:17:43.824Z,1012.53
2018-12-06T08:18:43.833Z,1012.50
2018-12-06T08:19:43.801Z,1012.56
2018-12-06T08:20:43.793Z,1012.55
2018-12-06T08:21:43.789Z,1012.55
2018-12-06T08:22:43.768Z,1012.48
2018-12-06T08:23:43.775Z,1012.46
2018-12-06T08:24:43.756Z,1012.38
2018-12-06T08:25:43.739Z,1012.43
2018-12-06T08:26:43.735Z,1012.42
2018-12-06T08:27:43.724Z,1012.37
2018-12-06T08:28:43.733Z,1012.35
2018-12-06T08:29:43.694Z,1012.36
2018-12-06T08:30:43.692Z,1012.36
2018-12-06T08:31:43.671Z,1012.37
2018-12-06T08:32:43.667Z,1012.37
2018-12-06T08:33:43.654Z,1012.40
2018-12-06T08:34:43.655Z,1012.53
2018-12-06T08:35:43.654Z,1012.56
2018-12-06T08:36:43.615Z,1012.67
2018-12-06T08:37:43.607Z,1012.67
2018-12-06T08:38:43.596Z,1012.77
2018-12-06T08:39:43.614Z,1012.74
2018-12-06T08:40:43.574Z,1012.71
2018-12-06T08:41:43.580Z,1012.69
2018-12-06T08:42:45.896Z,1012.68
2018-12-06T08:43:43.569Z,1012.64
2018-12-06T08:44:43.548Z,1012.67
2018-12-06T08:45:43.519Z,1012.67
2018-12-06T08:46:43.511Z,1012.73
2018-12-06T08:47:43.509Z,1012.69
2018-12-06T08:48:43.481Z,1012.75
2018-12-06T08:49:43.485Z,1012.84
2018-12-06T08:50:43.457Z,1012.89
2018-12-06T08:51:43.453Z,1012.95
2018-12-06T08:52:43.446Z,1012.96
2018-12-06T08:53:43.431Z,1012.97
2018-12-06T08:54:43.437Z,1012.98
2018-12-06T08:55:43.405Z,1013.04
2018-12-06T08:56:43.387Z,1013.01
2018-12-06T08:57:43.384Z,1013.01
2018-12-06T08:58:43.378Z,1013.09
2018-12-06T08:59:43.387Z,1013.05
2018-12-06T09:00:43.351Z,1013.12
2018-12-06T09:01:43.348Z,1013.09
2018-12-06T09:02:43.328Z,1013.13
2018-12-06T09:03:43.317Z,1013.14
2018-12-06T09:04:43.327Z,1013.14
2018-12-06T09:05:43.293Z,1013.18
2018-12-06T09:06:43.329Z,1013.20
2018-12-06T09:07:43.269Z,1013.20
2018-12-06T09:08:43.266Z,1013.25
2018-12-06T09:09:43.263Z,1013.24
2018-12-06T09:10:43.245Z,1013.26
2018-12-06T09:11:43.224Z,1013.28
2018-12-06T09:12:43.223Z,1013.30
2018-12-06T09:13:43.207Z,1013.33
2018-12-06T09:14:43.206Z,1013.30
2018-12-06T09:15:43.182Z,1013.29
2018-12-06T09:16:43.171Z,1013.31
2018-12-06T09:17:43.158Z,1013.28
2018-12-06T09:18:43.148Z,1013.29
2018-12-06T09:19:43.161Z,1013.28
2018-12-06T09:20:43.133Z,1013.31
2018-12-06T09:21:43.117Z,1013.29
2018-12-06T09:22:43.101Z,1013.30
2018-12-06T09:23:43.093Z,1013.30
2018-12-06T09:24:43.109Z,1013.30
2018-12-06T09:25:43.073Z,1013.25
2018-12-06T09:26:43.068Z,1013.27
2018-12-06T09:27:43.047Z,1013.30
2018-12-06T09:28:43.036Z,1013.29
2018-12-06T09:29:43.025Z,1013.29
2018-12-06T09:30:43.027Z,1013.30
2018-12-06T09:31:43.023Z,1013.27
2018-12-06T09:32:43.001Z,1013.30
2018-12-06T09:33:42.985Z,1013.26
2018-12-06T09:34:42.972Z,1013.28
2018-12-06T09:35:42.979Z,1013.22
2018-12-06T09:36:42.950Z,1013.26
2018-12-06T09:37:42.937Z,1013.24
2018-12-06T09:38:42.925Z,1013.24
2018-12-06T09:39:42.915Z,1013.22
2018-12-06T09:40:42.943Z,1013.18
2018-12-06T09:41:42.896Z,1013.16
2018-12-06T09:42:42.882Z,1013.13
2018-12-06T09:43:42.882Z,1013.20
2018-12-06T09:44:42.861Z,1013.18
2018-12-06T09:45:42.865Z,1013.24
2018-12-06T09:46:42.837Z,1013.16
2018-12-06T09:47:42.825Z,1013.23
2018-12-06T09:48:42.820Z,1013.20
2018-12-06T09:49:42.801Z,1013.20
2018-12-06T09:50:42.818Z,1013.19
2018-12-06T09:51:42.783Z,1013.15
2018-12-06T09:52:42.767Z,1013.14
2018-12-06T09:53:42.759Z,1013.07
2018-12-06T09:54:43.176Z,1013.16
2018-12-06T09:55:42.755Z,1013.06
2018-12-06T09:56:42.737Z,1013.08
2018-12-06T09:57:42.728Z,1013.10
2018-12-06T09:58:42.738Z,1013.04
2018-12-06T09:59:42.693Z,1013.04
2018-12-06T10:00:42.699Z,1013.09
2018-12-06T10:01:42.699Z,1013.01
2018-12-06T10:02:42.662Z,1013.00
2018-12-06T10:03:42.648Z,1012.98
2018-12-06T10:04:42.637Z,1013.01
2018-12-06T10:05:42.644Z,1013.01
2018-12-06T10:06:42.613Z,1012.98
2018-12-06T10:07:42.605Z,1012.96
2018-12-06T10:08:42.594Z,1012.97
2018-12-06T10:09:42.583Z,1012.95
2018-12-06T10:10:42.589Z,1012.95
2018-12-06T10:11:42.559Z,1012.99
2018-12-06T10:12:42.554Z,1012.99
2018-12-06T10:13:42.539Z,1012.96
2018-12-06T10:14:42.527Z,1013.00
2018-12-06T10:15:42.537Z,1012.98
2018-12-06T10:16:42.501Z,1012.97
2018-12-06T10:17:42.493Z,1012.99
2018-12-06T10:18:42.495Z,1012.99
2018-12-06T10:19:42.482Z,1012.94
2018-12-06T10:20:42.479Z,1012.95
2018-12-06T10:21:42.449Z,1012.94
2018-12-06T10:22:42.439Z,1012.93
2018-12-06T10:23:42.477Z,1012.89
2018-12-06T10:24:42.420Z,1012.88
2018-12-06T10:25:42.438Z,1012.89
2018-12-06T10:26:42.393Z,1012.83
2018-12-06T10:27:42.391Z,1012.85
2018-12-06T10:28:42.376Z,1012.82
2018-12-06T10:29:42.366Z,1012.82
2018-12-06T10:30:42.355Z,1012.82
2018-12-06T10:31:42.361Z,1012.78
2018-12-06T10:32:42.331Z,1012.81
2018-12-06T10:33:42.318Z,1012.82
2018-12-06T10:34:42.313Z,1012.78
2018-12-06T10:35:42.301Z,1012.78
2018-12-06T10:36:42.307Z,1012.79
2018-12-06T10:37:42.278Z,1012.80
2018-12-06T10:38:42.263Z,1012.76
2018-12-06T10:39:42.251Z,1012.77
2018-12-06T10:40:42.238Z,1012.76
2018-12-06T10:41:42.255Z,1012.77
2018-12-06T10:42:42.224Z,1012.76
2018-12-06T10:43:42.212Z,1012.73
2018-12-06T10:44:42.196Z,1012.66
2018-12-06T10:45:42.189Z,1012.65
2018-12-06T10:46:42.197Z,1012.64
2018-12-06T10:47:42.163Z,1012.64
2018-12-06T10:48:42.175Z,1012.65
2018-12-06T10:49:42.147Z,1012.68
2018-12-06T10:50:42.137Z,1012.65
2018-12-06T10:51:42.143Z,1012.60
2018-12-06T10:52:42.112Z,1012.64
2018-12-06T10:53:42.098Z,1012.59
2018-12-06T10:54:42.089Z,1012.56
2018-12-06T10:55:42.081Z,1012.57
2018-12-06T10:56:42.118Z,1012.53
2018-12-06T10:57:42.063Z,1012.54
2018-12-06T10:58:42.040Z,1012.55
2018-12-06T10:59:42.035Z,1012.48
2018-12-06T11:00:42.018Z,1012.46
2018-12-06T11:01:42.050Z,1012.47
2018-12-06T11:02:41.996Z,1012.43
2018-12-06T11:03:41.989Z,1012.42
2018-12-06T11:04:41.974Z,1012.42
2018-12-06T11:05:41.973Z,1012.38
2018-12-06T11:06:41.978Z,1012.37
2018-12-06T11:07:41.946Z,1012.37
2018-12-06T11:08:41.936Z,1012.34
2018-12-06T11:09:41.922Z,1012.29
2018-12-06T11:10:41.912Z,1012.26
2018-12-06T11:11:41.925Z,1012.23
2018-12-06T11:12:41.890Z,1012.19
2018-12-06T11:13:41.878Z,1012.11
2018-12-06T11:14:41.865Z,1012.10
2018-12-06T11:15:41.857Z,1012.11
2018-12-06T11:16:41.866Z,1012.12
2018-12-06T11:17:41.839Z,1012.16
2018-12-06T11:18:41.822Z,1012.15
2018-12-06T11:19:41.821Z,1012.13
2018-12-06T11:20:41.796Z,1012.08
2018-12-06T11:21:41.817Z,1012.03
2018-12-06T11:22:41.786Z,1012.00
2018-12-06T11:23:41.767Z,1012.05
2018-12-06T11:24:41.759Z,1012.02
2018-12-06T11:25:41.744Z,1012.04
2018-12-06T11:26:41.755Z,1012.05
2018-12-06T11:27:41.729Z,1011.98
2018-12-06T11:28:41.708Z,1011.95
2018-12-06T11:29:41.701Z,1011.96
2018-12-06T11:30:41.691Z,1011.93
2018-12-06T11:31:41.710Z,1011.93
2018-12-06T11:32:41.705Z,1011.92
2018-12-06T11:33:41.658Z,1011.92
2018-12-06T11:34:41.642Z,1011.92
2018-12-06T11:35:41.630Z,1011.90
2018-12-06T11:36:41.623Z,1011.93
2018-12-06T11:37:41.627Z,1011.90
2018-12-06T11:38:41.604Z,1011.92
2018-12-06T11:39:41.586Z,1011.96
2018-12-06T11:40:41.581Z,1011.98
2018-12-06T11:41:43.224Z,1012.04
2018-12-06T11:42:41.584Z,1012.12
2018-12-06T11:43:41.540Z,1012.12
2018-12-06T11:44:41.536Z,1012.10
2018-12-06T11:45:41.524Z,1012.13
2018-12-06T11:46:41.512Z,1012.10
2018-12-06T11:47:41.516Z,1012.11
2018-12-06T11:48:41.494Z,1012.12
2018-12-06T11:49:41.476Z,1012.15
2018-12-06T11:50:41.484Z,1012.04
2018-12-06T11:51:41.454Z,1012.08
2018-12-06T11:52:41.465Z,1012.09
2018-12-06T11:53:41.438Z,1012.06
2018-12-06T11:54:41.422Z,1012.00
2018-12-06T11:55:41.414Z,1012.00
2018-12-06T11:56:41.400Z,1012.02
2018-12-06T11:57:41.412Z,1011.99
2018-12-06T11:58:41.378Z,1011.90
2018-12-06T11:59:41.368Z,1011.89
2018-12-06T12:00:41.360Z,1011.89
2018-12-06T12:01:41.341Z,1011.87
2018-12-06T12:02:41.374Z,1011.82
2018-12-06T12:03:41.320Z,1011.80
2018-12-06T12:04:41.314Z,1011.82
2018-12-06T12:05:41.301Z,1011.82